sensor_id;sensor_type;location;lat;lon;timestamp;pressure;altitude;pressure_sealevel;temperature;humidity
50368;BME280;36281;34.132;-118.018;2024-02-23T00:01:28;100480.44;;;21.63;38.65
50368;BME280;36281;34.132;-118.018;2024-02-23T00:06:26;100489.59;;;21.57;41.20
50368;BME280;36281;34.132;-118.018;2024-02-23T00:08:56;100487.69;;;21.58;41.93
50368;BME280;36281;34.132;-118.018;2024-02-23T00:11:26;100494.97;;;21.57;42.97
50368;BME280;36281;34.132;-118.018;2024-02-23T00:13:58;100495.53;;;21.49;44.42
50368;BME280;36281;34.132;-118.018;2024-02-23T00:16:28;100506.03;;;21.51;44.70
50368;BME280;36281;34.132;-118.018;2024-02-23T00:18:57;100499.84;;;21.50;44.60
50368;BME280;36281;34.132;-118.018;2024-02-23T00:21:27;100493.34;;;21.36;45.80
50368;BME280;36281;34.132;-118.018;2024-02-23T00:23:56;100493.31;;;21.26;46.39
50368;BME280;36281;34.132;-118.018;2024-02-23T00:26:25;100485.22;;;21.21;46.65
50368;BME280;36281;34.132;-118.018;2024-02-23T00:28:54;100490.06;;;21.19;46.93
50368;BME280;36281;34.132;-118.018;2024-02-23T00:31:25;100486.28;;;21.14;46.84
50368;BME280;36281;34.132;-118.018;2024-02-23T00:33:54;100488.94;;;20.94;47.62
50368;BME280;36281;34.132;-118.018;2024-02-23T00:36:23;100499.41;;;20.90;47.73
50368;BME280;36281;34.132;-118.018;2024-02-23T00:38:52;100502.63;;;20.82;48.11
50368;BME280;36281;34.132;-118.018;2024-02-23T00:41:21;100505.53;;;20.71;48.14
50368;BME280;36281;34.132;-118.018;2024-02-23T00:43:50;100508.22;;;20.71;48.83
50368;BME280;36281;34.132;-118.018;2024-02-23T00:46:19;100513.59;;;20.65;49.08
50368;BME280;36281;34.132;-118.018;2024-02-23T00:48:50;100507.59;;;20.53;49.15
50368;BME280;36281;34.132;-118.018;2024-02-23T00:51:19;100520.22;;;20.48;49.58
50368;BME280;36281;34.132;-118.018;2024-02-23T00:53:48;100520.38;;;20.31;49.63
50368;BME280;36281;34.132;-118.018;2024-02-23T00:56:17;100519.28;;;20.27;50.16
50368;BME280;36281;34.132;-118.018;2024-02-23T00:58:50;100528.91;;;20.23;50.40
50368;BME280;36281;34.132;-118.018;2024-02-23T01:01:19;100534.84;;;20.20;50.68
50368;BME280;36281;34.132;-118.018;2024-02-23T01:03:49;100542.88;;;20.14;50.81
50368;BME280;36281;34.132;-118.018;2024-02-23T01:06:19;100550.59;;;20.06;51.39
50368;BME280;36281;34.132;-118.018;2024-02-23T01:08:48;100547.34;;;20.04;51.17
50368;BME280;36281;34.132;-118.018;2024-02-23T01:11:17;100554.47;;;19.88;51.07
50368;BME280;36281;34.132;-118.018;2024-02-23T01:13:46;100553.63;;;19.82;51.09
50368;BME280;36281;34.132;-118.018;2024-02-23T01:16:16;100551.06;;;19.66;51.54
50368;BME280;36281;34.132;-118.018;2024-02-23T01:18:45;100554.25;;;19.62;52.36
50368;BME280;36281;34.132;-118.018;2024-02-23T01:21:16;100553.38;;;19.57;52.07
50368;BME280;36281;34.132;-118.018;2024-02-23T01:23:45;100559.47;;;19.47;52.54
50368;BME280;36281;34.132;-118.018;2024-02-23T01:26:14;100566.34;;;19.38;52.84
50368;BME280;36281;34.132;-118.018;2024-02-23T01:28:43;100564.13;;;19.30;53.10
50368;BME280;36281;34.132;-118.018;2024-02-23T01:31:12;100571.56;;;19.23;53.28
50368;BME280;36281;34.132;-118.018;2024-02-23T01:33:42;100573.63;;;19.16;53.24
50368;BME280;36281;34.132;-118.018;2024-02-23T01:36:11;100576.94;;;19.01;54.30
50368;BME280;36281;34.132;-118.018;2024-02-23T01:38:41;100570.44;;;18.97;54.82
50368;BME280;36281;34.132;-118.018;2024-02-23T01:41:11;100574.88;;;18.86;55.20
50368;BME280;36281;34.132;-118.018;2024-02-23T01:43:40;100581.00;;;18.81;55.67
50368;BME280;36281;34.132;-118.018;2024-02-23T01:46:09;100571.50;;;18.74;56.00
50368;BME280;36281;34.132;-118.018;2024-02-23T01:48:38;100570.78;;;18.62;56.22
50368;BME280;36281;34.132;-118.018;2024-02-23T01:51:08;100577.53;;;18.47;57.50
50368;BME280;36281;34.132;-118.018;2024-02-23T01:53:37;100575.72;;;18.53;58.16
50368;BME280;36281;34.132;-118.018;2024-02-23T01:56:09;100582.28;;;18.40;58.06
50368;BME280;36281;34.132;-118.018;2024-02-23T01:58:38;100586.91;;;18.28;59.40
50368;BME280;36281;34.132;-118.018;2024-02-23T02:01:08;100586.19;;;18.16;59.65
50368;BME280;36281;34.132;-118.018;2024-02-23T02:03:38;100583.09;;;18.07;60.79
50368;BME280;36281;34.132;-118.018;2024-02-23T02:06:09;100588.38;;;18.02;60.33
50368;BME280;36281;34.132;-118.018;2024-02-23T02:08:39;100585.03;;;17.95;60.82
50368;BME280;36281;34.132;-118.018;2024-02-23T02:11:10;100587.78;;;17.83;61.26
50368;BME280;36281;34.132;-118.018;2024-02-23T02:13:39;100586.06;;;17.77;61.37
50368;BME280;36281;34.132;-118.018;2024-02-23T02:16:08;100579.91;;;17.65;61.48
50368;BME280;36281;34.132;-118.018;2024-02-23T02:18:39;100583.38;;;17.48;62.28
50368;BME280;36281;34.132;-118.018;2024-02-23T02:21:08;100581.28;;;17.50;62.96
50368;BME280;36281;34.132;-118.018;2024-02-23T02:23:38;100583.13;;;17.50;62.48
50368;BME280;36281;34.132;-118.018;2024-02-23T02:26:07;100583.13;;;17.50;62.79
50368;BME280;36281;34.132;-118.018;2024-02-23T02:28:38;100580.84;;;17.42;62.97
50368;BME280;36281;34.132;-118.018;2024-02-23T02:31:07;100586.34;;;17.35;63.73
50368;BME280;36281;34.132;-118.018;2024-02-23T02:33:36;100595.22;;;17.24;63.61
50368;BME280;36281;34.132;-118.018;2024-02-23T02:36:06;100593.88;;;17.10;64.49
50368;BME280;36281;34.132;-118.018;2024-02-23T02:38:35;100601.69;;;17.11;64.32
50368;BME280;36281;34.132;-118.018;2024-02-23T02:41:04;100599.91;;;17.17;63.84
50368;BME280;36281;34.132;-118.018;2024-02-23T02:43:33;100610.22;;;16.96;64.50
50368;BME280;36281;34.132;-118.018;2024-02-23T02:46:04;100616.72;;;16.89;64.26
50368;BME280;36281;34.132;-118.018;2024-02-23T02:48:33;100613.47;;;16.87;63.56
50368;BME280;36281;34.132;-118.018;2024-02-23T02:51:03;100609.03;;;16.80;63.61
50368;BME280;36281;34.132;-118.018;2024-02-23T02:53:32;100621.16;;;16.71;63.80
50368;BME280;36281;34.132;-118.018;2024-02-23T02:56:01;100626.13;;;16.56;64.02
50368;BME280;36281;34.132;-118.018;2024-02-23T02:58:30;100628.81;;;16.56;64.66
50368;BME280;36281;34.132;-118.018;2024-02-23T03:00:59;100620.88;;;16.49;65.10
50368;BME280;36281;34.132;-118.018;2024-02-23T03:03:32;100619.84;;;16.50;66.20
50368;BME280;36281;34.132;-118.018;2024-02-23T03:06:01;100625.88;;;16.46;65.84
50368;BME280;36281;34.132;-118.018;2024-02-23T03:08:30;100628.78;;;16.33;67.22
50368;BME280;36281;34.132;-118.018;2024-02-23T03:11:00;100632.84;;;16.23;67.16
50368;BME280;36281;34.132;-118.018;2024-02-23T03:13:29;100630.41;;;16.22;68.06
50368;BME280;36281;34.132;-118.018;2024-02-23T03:16:00;100633.72;;;16.06;69.30
50368;BME280;36281;34.132;-118.018;2024-02-23T03:18:31;100642.66;;;15.99;69.03
50368;BME280;36281;34.132;-118.018;2024-02-23T03:21:01;100639.84;;;15.94;69.41
50368;BME280;36281;34.132;-118.018;2024-02-23T03:23:30;100633.06;;;15.80;70.98
50368;BME280;36281;34.132;-118.018;2024-02-23T03:25:59;100628.06;;;15.72;71.56
50368;BME280;36281;34.132;-118.018;2024-02-23T03:28:28;100625.53;;;15.59;72.97
50368;BME280;36281;34.132;-118.018;2024-02-23T03:30:57;100632.22;;;15.68;72.65
50368;BME280;36281;34.132;-118.018;2024-02-23T03:33:26;100633.78;;;15.57;73.70
50368;BME280;36281;34.132;-118.018;2024-02-23T03:35:58;100632.09;;;15.44;74.61
50368;BME280;36281;34.132;-118.018;2024-02-23T03:38:27;100626.50;;;15.46;74.75
50368;BME280;36281;34.132;-118.018;2024-02-23T03:40:59;100626.63;;;15.21;76.41
50368;BME280;36281;34.132;-118.018;2024-02-23T03:43:29;100629.81;;;15.11;76.90
50368;BME280;36281;34.132;-118.018;2024-02-23T03:46:01;100618.31;;;15.11;76.74
50368;BME280;36281;34.132;-118.018;2024-02-23T03:48:30;100616.78;;;15.03;77.04
50368;BME280;36281;34.132;-118.018;2024-02-23T03:51:01;100620.50;;;15.02;78.50
50368;BME280;36281;34.132;-118.018;2024-02-23T03:53:31;100615.28;;;14.89;79.26
50368;BME280;36281;34.132;-118.018;2024-02-23T03:56:01;100628.34;;;14.97;79.70
50368;BME280;36281;34.132;-118.018;2024-02-23T03:58:30;100628.47;;;14.84;79.82
50368;BME280;36281;34.132;-118.018;2024-02-23T04:00:59;100625.38;;;14.87;80.22
50368;BME280;36281;34.132;-118.018;2024-02-23T04:03:28;100622.31;;;14.83;80.02
50368;BME280;36281;34.132;-118.018;2024-02-23T04:05:57;100626.59;;;14.66;81.66
50368;BME280;36281;34.132;-118.018;2024-02-23T04:08:28;100634.28;;;14.56;82.03
50368;BME280;36281;34.132;-118.018;2024-02-23T04:10:58;100642.88;;;14.58;81.10
50368;BME280;36281;34.132;-118.018;2024-02-23T04:13:27;100641.03;;;14.58;82.01
50368;BME280;36281;34.132;-118.018;2024-02-23T04:15:56;100644.13;;;14.55;82.39
50368;BME280;36281;34.132;-118.018;2024-02-23T04:18:26;100648.47;;;14.50;81.52
50368;BME280;36281;34.132;-118.018;2024-02-23T04:20:55;100649.31;;;14.43;82.53
50368;BME280;36281;34.132;-118.018;2024-02-23T04:23:24;100645.28;;;14.34;83.59
50368;BME280;36281;34.132;-118.018;2024-02-23T04:25:55;100655.31;;;14.39;83.47
50368;BME280;36281;34.132;-118.018;2024-02-23T04:28:24;100653.94;;;14.30;83.83
50368;BME280;36281;34.132;-118.018;2024-02-23T04:30:55;100658.22;;;14.31;83.71
50368;BME280;36281;34.132;-118.018;2024-02-23T04:33:24;100663.38;;;14.26;84.09
50368;BME280;36281;34.132;-118.018;2024-02-23T04:35:53;100668.59;;;14.14;85.33
50368;BME280;36281;34.132;-118.018;2024-02-23T04:38:22;100673.38;;;14.05;86.07
50368;BME280;36281;34.132;-118.018;2024-02-23T04:40:51;100671.31;;;14.07;85.56
50368;BME280;36281;34.132;-118.018;2024-02-23T04:43:22;100672.81;;;13.96;86.88
50368;BME280;36281;34.132;-118.018;2024-02-23T04:45:51;100656.94;;;13.77;87.45
50368;BME280;36281;34.132;-118.018;2024-02-23T04:48:20;100675.38;;;13.78;88.15
50368;BME280;36281;34.132;-118.018;2024-02-23T04:50:49;100677.41;;;13.83;87.58
50368;BME280;36281;34.132;-118.018;2024-02-23T04:53:19;100673.53;;;13.72;88.43
50368;BME280;36281;34.132;-118.018;2024-02-23T04:55:48;100674.41;;;13.66;89.07
50368;BME280;36281;34.132;-118.018;2024-02-23T04:58:17;100676.03;;;13.67;88.75
50368;BME280;36281;34.132;-118.018;2024-02-23T05:00:48;100674.41;;;13.66;89.51
50368;BME280;36281;34.132;-118.018;2024-02-23T05:03:17;100683.06;;;13.55;89.77
50368;BME280;36281;34.132;-118.018;2024-02-23T05:05:46;100675.91;;;13.49;89.53
50368;BME280;36281;34.132;-118.018;2024-02-23T05:08:15;100672.25;;;13.43;90.08
50368;BME280;36281;34.132;-118.018;2024-02-23T05:10:44;100665.28;;;13.42;90.04
50368;BME280;36281;34.132;-118.018;2024-02-23T05:13:13;100669.19;;;13.39;90.34
50368;BME280;36281;34.132;-118.018;2024-02-23T05:15:43;100673.94;;;13.31;91.37
50368;BME280;36281;34.132;-118.018;2024-02-23T05:18:13;100679.28;;;13.24;91.19
50368;BME280;36281;34.132;-118.018;2024-02-23T05:20:43;100684.34;;;13.32;91.55
50368;BME280;36281;34.132;-118.018;2024-02-23T05:23:12;100685.41;;;13.25;91.66
50368;BME280;36281;34.132;-118.018;2024-02-23T05:25:44;100689.28;;;13.15;91.28
50368;BME280;36281;34.132;-118.018;2024-02-23T05:28:13;100689.28;;;13.15;91.73
50368;BME280;36281;34.132;-118.018;2024-02-23T05:30:42;100694.44;;;13.04;92.16
50368;BME280;36281;34.132;-118.018;2024-02-23T05:33:13;100704.44;;;13.08;92.15
50368;BME280;36281;34.132;-118.018;2024-02-23T05:35:42;100712.22;;;13.03;92.27
50368;BME280;36281;34.132;-118.018;2024-02-23T05:38:11;100709.38;;;12.98;92.82
50368;BME280;36281;34.132;-118.018;2024-02-23T05:40:40;100720.00;;;12.91;93.60
50368;BME280;36281;34.132;-118.018;2024-02-23T05:43:09;100706.91;;;12.97;92.97
50368;BME280;36281;34.132;-118.018;2024-02-23T05:45:38;100715.91;;;12.96;93.08
50368;BME280;36281;34.132;-118.018;2024-02-23T05:48:08;100732.25;;;12.92;92.79
50368;BME280;36281;34.132;-118.018;2024-02-23T05:50:38;100740.44;;;12.98;92.19
50368;BME280;36281;34.132;-118.018;2024-02-23T05:53:08;100733.69;;;13.02;92.33
50368;BME280;36281;34.132;-118.018;2024-02-23T05:55:37;100732.25;;;13.06;92.42
50368;BME280;36281;34.132;-118.018;2024-02-23T05:58:06;100740.88;;;13.08;91.92
50368;BME280;36281;34.132;-118.018;2024-02-23T06:00:35;100741.06;;;13.00;92.16
50368;BME280;36281;34.132;-118.018;2024-02-23T06:03:04;100741.28;;;12.91;92.66
50368;BME280;36281;34.132;-118.018;2024-02-23T06:05:33;100725.53;;;12.83;92.89
50368;BME280;36281;34.132;-118.018;2024-02-23T06:08:04;100721.66;;;12.86;93.27
50368;BME280;36281;34.132;-118.018;2024-02-23T06:10:34;100714.72;;;12.78;93.11
50368;BME280;36281;34.132;-118.018;2024-02-23T06:13:03;100721.66;;;12.66;93.63
50368;BME280;36281;34.132;-118.018;2024-02-23T06:15:32;100716.34;;;12.79;93.02
50368;BME280;36281;34.132;-118.018;2024-02-23T06:18:01;100721.44;;;12.87;92.53
50368;BME280;36281;34.132;-118.018;2024-02-23T06:20:31;100716.75;;;12.89;92.30
50368;BME280;36281;34.132;-118.018;2024-02-23T06:23:00;100705.50;;;12.74;92.59
50368;BME280;36281;34.132;-118.018;2024-02-23T06:25:31;100710.19;;;12.72;92.82
50368;BME280;36281;34.132;-118.018;2024-02-23T06:28:00;100704.28;;;12.70;92.45
50368;BME280;36281;34.132;-118.018;2024-02-23T06:30:30;100703.66;;;12.75;92.53
50368;BME280;36281;34.132;-118.018;2024-02-23T06:32:59;100704.91;;;12.79;92.56
50368;BME280;36281;34.132;-118.018;2024-02-23T06:35:28;100708.78;;;12.70;93.25
50368;BME280;36281;34.132;-118.018;2024-02-23T06:37:57;100702.03;;;12.54;93.34
50368;BME280;36281;34.132;-118.018;2024-02-23T06:40:26;100691.41;;;12.40;93.46
50368;BME280;36281;34.132;-118.018;2024-02-23T06:43:13;100701.81;;;12.35;93.86
50368;BME280;36281;34.132;-118.018;2024-02-23T06:45:44;100711.41;;;12.36;94.19
50368;BME280;36281;34.132;-118.018;2024-02-23T06:48:13;100718.34;;;12.37;94.43
50368;BME280;36281;34.132;-118.018;2024-02-23T06:50:42;100723.06;;;12.35;94.04
50368;BME280;36281;34.132;-118.018;2024-02-23T06:53:11;100726.09;;;12.32;93.90
50368;BME280;36281;34.132;-118.018;2024-02-23T06:55:40;100719.75;;;12.20;94.94
50368;BME280;36281;34.132;-118.018;2024-02-23T06:58:10;100713.03;;;12.24;95.02
50368;BME280;36281;34.132;-118.018;2024-02-23T07:00:41;100707.31;;;12.21;95.16
50368;BME280;36281;34.132;-118.018;2024-02-23T07:03:10;100705.84;;;12.18;94.80
50368;BME280;36281;34.132;-118.018;2024-02-23T07:05:39;100707.91;;;12.16;94.66
50368;BME280;36281;34.132;-118.018;2024-02-23T07:08:08;100703.00;;;12.20;94.63
50368;BME280;36281;34.132;-118.018;2024-02-23T07:10:37;100700.53;;;12.18;94.97
50368;BME280;36281;34.132;-118.018;2024-02-23T07:13:06;100701.19;;;12.20;94.47
50368;BME280;36281;34.132;-118.018;2024-02-23T07:15:35;100699.72;;;12.18;94.12
50368;BME280;36281;34.132;-118.018;2024-02-23T07:18:06;100693.19;;;12.07;94.16
50368;BME280;36281;34.132;-118.018;2024-02-23T07:20:37;100695.00;;;12.00;94.93
50368;BME280;36281;34.132;-118.018;2024-02-23T07:23:09;100692.16;;;12.08;94.64
50368;BME280;36281;34.132;-118.018;2024-02-23T07:25:38;100689.69;;;12.00;95.07
50368;BME280;36281;34.132;-118.018;2024-02-23T07:28:07;100688.47;;;11.96;95.33
50368;BME280;36281;34.132;-118.018;2024-02-23T07:30:36;100682.72;;;11.92;95.34
50368;BME280;36281;34.132;-118.018;2024-02-23T07:33:07;100691.13;;;11.96;95.58
50368;BME280;36281;34.132;-118.018;2024-02-23T07:35:36;100685.59;;;11.90;94.89
50368;BME280;36281;34.132;-118.018;2024-02-23T07:38:06;100683.16;;;11.96;94.51
50368;BME280;36281;34.132;-118.018;2024-02-23T07:40:35;100688.03;;;11.85;94.88
50368;BME280;36281;34.132;-118.018;2024-02-23T07:43:04;100688.41;;;11.82;94.15
50368;BME280;36281;34.132;-118.018;2024-02-23T07:45:33;100674.03;;;11.63;94.76
50368;BME280;36281;34.132;-118.018;2024-02-23T07:48:04;100679.31;;;11.63;95.34
50368;BME280;36281;34.132;-118.018;2024-02-23T07:50:35;100676.50;;;11.65;95.83
50368;BME280;36281;34.132;-118.018;2024-02-23T07:53:04;100668.91;;;11.62;95.92
50368;BME280;36281;34.132;-118.018;2024-02-23T07:55:33;100668.69;;;11.57;96.49
50368;BME280;36281;34.132;-118.018;2024-02-23T07:58:03;100659.72;;;11.58;96.24
50368;BME280;36281;34.132;-118.018;2024-02-23T08:00:32;100653.81;;;11.56;96.31
50368;BME280;36281;34.132;-118.018;2024-02-23T08:03:03;100653.38;;;11.52;96.95
50368;BME280;36281;34.132;-118.018;2024-02-23T08:05:32;100642.59;;;11.54;96.40
50368;BME280;36281;34.132;-118.018;2024-02-23T08:08:03;100650.72;;;11.46;96.81
50368;BME280;36281;34.132;-118.018;2024-02-23T08:10:32;100647.41;;;11.44;96.59
50368;BME280;36281;34.132;-118.018;2024-02-23T08:13:01;100636.81;;;11.44;97.08
50368;BME280;36281;34.132;-118.018;2024-02-23T08:15:31;100637.66;;;11.44;96.49
50368;BME280;36281;34.132;-118.018;2024-02-23T08:18:00;100633.53;;;11.35;97.39
50368;BME280;36281;34.132;-118.018;2024-02-23T08:20:29;100633.09;;;11.31;97.18
50368;BME280;36281;34.132;-118.018;2024-02-23T08:22:58;100628.59;;;11.32;97.09
50368;BME280;36281;34.132;-118.018;2024-02-23T08:25:29;100629.84;;;11.29;97.50
50368;BME280;36281;34.132;-118.018;2024-02-23T08:27:58;100617.84;;;11.40;97.65
50368;BME280;36281;34.132;-118.018;2024-02-23T08:30:27;100618.59;;;11.27;98.67
50368;BME280;36281;34.132;-118.018;2024-02-23T08:32:57;100613.72;;;11.24;97.67
50368;BME280;36281;34.132;-118.018;2024-02-23T08:35:26;100609.38;;;11.23;98.13
50368;BME280;36281;34.132;-118.018;2024-02-23T08:37:55;100604.44;;;11.07;97.85
50368;BME280;36281;34.132;-118.018;2024-02-23T08:40:24;100604.44;;;11.07;98.67
50368;BME280;36281;34.132;-118.018;2024-02-23T08:42:55;100606.50;;;11.18;98.65
50368;BME280;36281;34.132;-118.018;2024-02-23T08:45:24;100603.59;;;11.00;99.18
50368;BME280;36281;34.132;-118.018;2024-02-23T08:47:53;100593.97;;;10.99;98.48
50368;BME280;36281;34.132;-118.018;2024-02-23T08:50:22;100599.22;;;10.85;98.80
50368;BME280;36281;34.132;-118.018;2024-02-23T08:52:51;100598.78;;;10.82;99.56
50368;BME280;36281;34.132;-118.018;2024-02-23T08:55:20;100595.56;;;10.86;99.37
50368;BME280;36281;34.132;-118.018;2024-02-23T08:57:50;100579.44;;;10.81;99.50
50368;BME280;36281;34.132;-118.018;2024-02-23T09:00:21;100583.09;;;10.80;99.62
50368;BME280;36281;34.132;-118.018;2024-02-23T09:02:51;100571.69;;;10.80;99.39
50368;BME280;36281;34.132;-118.018;2024-02-23T09:05:20;100583.28;;;10.79;99.46
50368;BME280;36281;34.132;-118.018;2024-02-23T09:07:49;100579.44;;;10.81;99.80
50368;BME280;36281;34.132;-118.018;2024-02-23T09:10:19;100575.31;;;10.72;100.00
50368;BME280;36281;34.132;-118.018;2024-02-23T09:12:48;100571.97;;;10.64;100.00
50368;BME280;36281;34.132;-118.018;2024-02-23T09:15:17;100572.63;;;10.66;99.85
50368;BME280;36281;34.132;-118.018;2024-02-23T09:17:47;100566.31;;;10.67;99.53
50368;BME280;36281;34.132;-118.018;2024-02-23T09:20:17;100561.81;;;10.67;99.42
50368;BME280;36281;34.132;-118.018;2024-02-23T09:22:46;100556.91;;;10.64;99.37
50368;BME280;36281;34.132;-118.018;2024-02-23T09:25:33;100558.50;;;10.58;99.78
50368;BME280;36281;34.132;-118.018;2024-02-23T09:28:03;100551.78;;;10.56;99.63
50368;BME280;36281;34.132;-118.018;2024-02-23T09:30:32;100553.66;;;10.62;99.58
50368;BME280;36281;34.132;-118.018;2024-02-23T09:33:02;100543.84;;;10.56;99.37
50368;BME280;36281;34.132;-118.018;2024-02-23T09:35:32;100541.75;;;10.51;99.74
50368;BME280;36281;34.132;-118.018;2024-02-23T09:38:01;100541.75;;;10.51;99.66
50368;BME280;36281;34.132;-118.018;2024-02-23T09:40:31;100551.09;;;10.47;100.00
50368;BME280;36281;34.132;-118.018;2024-02-23T09:43:00;100546.22;;;10.44;99.85
50368;BME280;36281;34.132;-118.018;2024-02-23T09:45:29;100541.56;;;10.53;99.46
50368;BME280;36281;34.132;-118.018;2024-02-23T09:48:01;100537.84;;;10.41;100.00
50368;BME280;36281;34.132;-118.018;2024-02-23T09:50:32;100529.22;;;10.32;100.00
50368;BME280;36281;34.132;-118.018;2024-02-23T09:53:02;100537.03;;;10.40;100.00
50368;BME280;36281;34.132;-118.018;2024-02-23T09:55:33;100529.44;;;10.37;100.00
50368;BME280;36281;34.132;-118.018;2024-02-23T09:58:02;100525.72;;;10.25;100.00
50368;BME280;36281;34.132;-118.018;2024-02-23T10:00:34;100526.13;;;10.28;100.00
50368;BME280;36281;34.132;-118.018;2024-02-23T10:03:08;100527.78;;;10.29;100.00
50368;BME280;36281;34.132;-118.018;2024-02-23T10:05:37;100517.44;;;10.34;100.00
50368;BME280;36281;34.132;-118.018;2024-02-23T10:08:09;100525.50;;;10.26;100.00
50368;BME280;36281;34.132;-118.018;2024-02-23T10:10:39;100524.13;;;10.30;100.00
50368;BME280;36281;34.132;-118.018;2024-02-23T10:13:08;100521.03;;;10.27;100.00
50368;BME280;36281;34.132;-118.018;2024-02-23T10:15:37;100521.97;;;10.19;100.00
50368;BME280;36281;34.132;-118.018;2024-02-23T10:18:19;100517.31;;;10.21;100.00
50368;BME280;36281;34.132;-118.018;2024-02-23T10:20:48;100516.56;;;10.27;100.00
50368;BME280;36281;34.132;-118.018;2024-02-23T10:23:19;100506.38;;;10.24;100.00
50368;BME280;36281;34.132;-118.018;2024-02-23T10:25:48;100511.78;;;10.16;100.00
50368;BME280;36281;34.132;-118.018;2024-02-23T10:28:17;100503.44;;;10.19;100.00
50368;BME280;36281;34.132;-118.018;2024-02-23T10:30:51;100499.16;;;10.18;100.00
50368;BME280;36281;34.132;-118.018;2024-02-23T10:33:23;100494.06;;;10.17;100.00
50368;BME280;36281;34.132;-118.018;2024-02-23T10:35:55;100487.94;;;10.16;100.00
50368;BME280;36281;34.132;-118.018;2024-02-23T10:38:26;100479.81;;;10.18;100.00
50368;BME280;36281;34.132;-118.018;2024-02-23T10:40:57;100469.63;;;10.15;100.00
50368;BME280;36281;34.132;-118.018;2024-02-23T10:43:29;100471.66;;;10.19;100.00
50368;BME280;36281;34.132;-118.018;2024-02-23T10:45:59;100462.19;;;10.25;100.00
50368;BME280;36281;34.132;-118.018;2024-02-23T10:48:33;100456.06;;;10.24;100.00
50368;BME280;36281;34.132;-118.018;2024-02-23T10:51:05;100462.19;;;10.25;100.00
50368;BME280;36281;34.132;-118.018;2024-02-23T10:53:36;100455.88;;;10.26;100.00
50368;BME280;36281;34.132;-118.018;2024-02-23T10:56:06;100455.59;;;10.21;100.00
50368;BME280;36281;34.132;-118.018;2024-02-23T10:58:35;100458.03;;;10.22;100.00
50368;BME280;36281;34.132;-118.018;2024-02-23T11:01:07;100452.31;;;10.19;100.00
50368;BME280;36281;34.132;-118.018;2024-02-23T11:03:42;100453.91;;;10.13;100.00
50368;BME280;36281;34.132;-118.018;2024-02-23T11:06:16;100443.16;;;10.15;100.00
50368;BME280;36281;34.132;-118.018;2024-02-23T11:08:50;100442.91;;;10.09;100.00
50368;BME280;36281;34.132;-118.018;2024-02-23T11:11:20;100444.97;;;10.14;100.00
50368;BME280;36281;34.132;-118.018;2024-02-23T11:13:49;100452.66;;;10.09;100.00
50368;BME280;36281;34.132;-118.018;2024-02-23T11:16:26;100446.38;;;10.10;100.00
50368;BME280;36281;34.132;-118.018;2024-02-23T11:19:04;100433.16;;;10.10;100.00
50368;BME280;36281;34.132;-118.018;2024-02-23T11:21:37;100428.00;;;10.02;100.00
50368;BME280;36281;34.132;-118.018;2024-02-23T11:24:07;100422.72;;;10.02;100.00
50368;BME280;36281;34.132;-118.018;2024-02-23T11:26:37;100420.16;;;10.15;100.00
50368;BME280;36281;34.132;-118.018;2024-02-23T11:29:13;100425.16;;;10.03;100.00
50368;BME280;36281;34.132;-118.018;2024-02-23T11:31:47;100423.50;;;9.96;100.00
50368;BME280;36281;34.132;-118.018;2024-02-23T11:34:23;100423.53;;;10.02;100.00
50368;BME280;36281;34.132;-118.018;2024-02-23T11:36:53;100420.91;;;10.09;99.58
50368;BME280;36281;34.132;-118.018;2024-02-23T11:39:22;100412.69;;;9.97;100.00
50368;BME280;36281;34.132;-118.018;2024-02-23T11:41:52;100404.91;;;9.89;100.00
50368;BME280;36281;34.132;-118.018;2024-02-23T11:44:21;100404.16;;;9.95;100.00
50368;BME280;36281;34.132;-118.018;2024-02-23T11:46:50;100402.09;;;9.91;100.00
50368;BME280;36281;34.132;-118.018;2024-02-23T11:49:19;100400.50;;;9.96;100.00
50368;BME280;36281;34.132;-118.018;2024-02-23T11:51:51;100392.81;;;10.08;100.00
50368;BME280;36281;34.132;-118.018;2024-02-23T11:54:20;100398.06;;;10.01;100.00
50368;BME280;36281;34.132;-118.018;2024-02-23T11:56:50;100398.06;;;10.01;100.00
50368;BME280;36281;34.132;-118.018;2024-02-23T11:59:21;100398.28;;;10.00;100.00
50368;BME280;36281;34.132;-118.018;2024-02-23T12:01:51;100391.31;;;9.99;100.00
50368;BME280;36281;34.132;-118.018;2024-02-23T12:04:21;100389.56;;;10.06;100.00
50368;BME280;36281;34.132;-118.018;2024-02-23T12:06:51;100381.38;;;10.01;100.00
50368;BME280;36281;34.132;-118.018;2024-02-23T12:09:21;100376.09;;;10.01;100.00
50368;BME280;36281;34.132;-118.018;2024-02-23T12:11:50;100374.69;;;10.05;100.00
50368;BME280;36281;34.132;-118.018;2024-02-23T12:14:19;100354.72;;;10.02;100.00
50368;BME280;36281;34.132;-118.018;2024-02-23T12:16:48;100358.19;;;10.03;100.00
50368;BME280;36281;34.132;-118.018;2024-02-23T12:19:17;100356.97;;;10.05;100.00
50368;BME280;36281;34.132;-118.018;2024-02-23T12:21:46;100354.72;;;10.02;100.00
50368;BME280;36281;34.132;-118.018;2024-02-23T12:24:17;100352.06;;;10.02;100.00
50368;BME280;36281;34.132;-118.018;2024-02-23T12:26:53;100343.31;;;10.02;100.00
50368;BME280;36281;34.132;-118.018;2024-02-23T12:29:23;100339.28;;;10.06;100.00
50368;BME280;36281;34.132;-118.018;2024-02-23T12:32:02;100334.59;;;10.08;100.00
50368;BME280;36281;34.132;-118.018;2024-02-23T12:34:32;100334.19;;;10.04;100.00